createdAt,value
2023-05-23T08:45:33.242Z,25.67
2023-05-23T08:48:39.293Z,25.39
2023-05-23T08:51:45.866Z,25.10
2023-05-23T08:54:53.277Z,25.24
2023-05-23T08:58:01.852Z,25.30
2023-05-23T09:01:28.242Z,25.47
2023-05-23T09:04:35.800Z,25.66
2023-05-23T09:07:48.247Z,26.06
2023-05-23T09:10:56.623Z,26.10
2023-05-23T09:14:03.533Z,26.36
2023-05-23T09:17:13.485Z,26.41
2023-05-23T09:20:28.465Z,26.38
2023-05-23T09:23:37.107Z,26.48
2023-05-23T09:26:41.748Z,26.73
2023-05-23T09:29:54.266Z,26.78
2023-05-23T09:33:08.944Z,26.84
2023-05-23T09:36:08.160Z,26.88
2023-05-23T09:39:19.011Z,26.78
2023-05-23T09:42:19.424Z,26.71
2023-05-23T09:45:25.955Z,26.91
2023-05-23T09:48:32.596Z,27.13
2023-05-23T09:51:38.927Z,27.30
2023-05-23T09:54:45.389Z,27.22
2023-05-23T09:57:53.269Z,27.59
2023-05-23T10:01:01.354Z,27.57
2023-05-23T10:04:29.784Z,27.79
2023-05-23T10:07:35.107Z,27.85
2023-05-23T10:10:40.887Z,27.85
2023-05-23T10:13:47.372Z,27.79
2023-05-23T10:17:18.424Z,27.63
2023-05-23T10:20:30.892Z,27.74
2023-05-23T10:23:36.839Z,27.72
2023-05-23T10:26:42.698Z,27.93
2023-05-23T10:29:48.704Z,27.93
2023-05-23T10:32:55.528Z,27.91
2023-05-23T10:36:07.284Z,27.51
2023-05-23T10:39:20.594Z,27.46
2023-05-23T10:42:39.554Z,27.80
2023-05-23T10:45:45.968Z,27.66
2023-05-23T10:48:56.629Z,27.98
2023-05-23T10:52:05.974Z,28.13
2023-05-23T10:55:11.079Z,28.01
2023-05-23T10:58:33.009Z,27.86
2023-05-23T11:01:39.695Z,27.96
2023-05-23T11:04:46.053Z,28.04
2023-05-23T11:07:52.542Z,28.11
2023-05-23T11:11:18.745Z,28.11
2023-05-23T11:14:25.900Z,28.18
2023-05-23T11:17:30.912Z,28.49
2023-05-23T11:20:42.877Z,28.50
2023-05-23T11:23:57.085Z,28.35
2023-05-23T11:27:10.949Z,28.52
2023-05-23T11:30:20.796Z,28.79
2023-05-23T11:33:27.947Z,28.86
2023-05-23T11:36:35.383Z,28.76
2023-05-23T11:39:40.865Z,29.02
2023-05-23T11:42:46.452Z,28.91
2023-05-23T11:45:56.350Z,29.18
2023-05-23T11:49:02.761Z,29.34
2023-05-23T11:52:08.998Z,29.31
2023-05-23T11:55:16.848Z,29.63
2023-05-23T11:58:23.617Z,29.71
2023-05-23T12:01:30.624Z,29.72
2023-05-23T12:04:35.980Z,29.84
2023-05-23T12:07:40.800Z,29.99
2023-05-23T12:10:47.758Z,30.13
2023-05-23T12:13:54.600Z,29.87
2023-05-23T12:16:59.398Z,29.83
2023-05-23T12:20:06.941Z,29.87
2023-05-23T12:23:13.732Z,29.74
2023-05-23T12:26:20.892Z,29.96
2023-05-23T12:29:26.611Z,30.03
2023-05-23T12:32:31.349Z,30.00
2023-05-23T12:35:39.092Z,29.75
2023-05-23T12:38:51.601Z,29.48
2023-05-23T12:41:58.975Z,29.21
2023-05-23T12:45:07.415Z,29.14
2023-05-23T12:48:15.841Z,29.15
2023-05-23T12:51:20.885Z,29.42
2023-05-23T12:54:27.572Z,29.47
2023-05-23T12:57:33.638Z,29.66
2023-05-23T13:00:39.747Z,29.67
2023-05-23T13:03:39.282Z,29.53
2023-05-23T13:06:31.911Z,29.72
2023-05-23T13:09:38.113Z,29.69
2023-05-23T13:12:46.334Z,29.71
2023-05-23T13:15:52.233Z,29.68
2023-05-23T13:18:59.751Z,29.74
2023-05-23T13:22:07.287Z,29.76
2023-05-23T13:25:14.046Z,29.84
2023-05-23T13:28:20.623Z,29.87
2023-05-23T13:31:19.916Z,29.89
2023-05-23T13:34:26.033Z,29.87
2023-05-23T13:37:32.132Z,29.97
2023-05-23T13:40:38.954Z,29.94
2023-05-23T13:43:46.764Z,29.43
2023-05-23T13:46:54.141Z,28.87
2023-05-23T13:49:59.750Z,28.60
2023-05-23T13:53:06.149Z,28.35
2023-05-23T13:56:12.274Z,27.97
2023-05-23T13:59:17.230Z,27.66
2023-05-23T14:02:22.178Z,27.61
2023-05-23T14:05:28.095Z,27.41
2023-05-23T14:08:33.606Z,27.45
2023-05-23T14:11:38.553Z,27.40
2023-05-23T14:14:43.769Z,27.37
2023-05-23T14:17:50.801Z,27.40
2023-05-23T14:20:59.154Z,27.40
2023-05-23T14:24:06.336Z,27.31
2023-05-23T14:27:13.461Z,27.35
2023-05-23T14:30:20.729Z,27.40
2023-05-23T14:33:26.372Z,27.27
2023-05-23T14:36:31.252Z,27.29
2023-05-23T14:39:36.638Z,27.15
2023-05-23T14:42:42.541Z,27.10
2023-05-23T14:45:48.136Z,27.14
2023-05-23T14:48:54.260Z,27.09
2023-05-23T14:52:00.133Z,26.98
2023-05-23T14:55:06.151Z,26.91
2023-05-23T14:58:12.741Z,26.92
2023-05-23T15:01:19.976Z,26.67
2023-05-23T15:04:27.419Z,26.47
2023-05-23T15:07:34.220Z,26.43
2023-05-23T15:10:39.799Z,26.38
2023-05-23T15:13:46.431Z,26.40
2023-05-23T15:16:55.286Z,26.25
2023-05-23T15:20:04.599Z,26.20
2023-05-23T15:23:10.781Z,26.16
2023-05-23T15:26:15.658Z,26.11
2023-05-23T15:29:24.744Z,26.23
2023-05-23T15:32:24.538Z,26.15
2023-05-23T15:35:19.491Z,26.24
2023-05-23T15:38:20.199Z,26.36
2023-05-23T15:41:26.626Z,26.40
2023-05-23T15:44:32.240Z,26.43
2023-05-23T15:47:37.598Z,26.53
2023-05-23T15:50:44.934Z,26.49
2023-05-23T15:56:59.586Z,26.28
2023-05-23T16:00:06.421Z,26.20
2023-05-23T16:03:12.603Z,26.04
2023-05-23T16:06:19.007Z,25.97
2023-05-23T16:09:23.653Z,25.89
2023-05-23T16:12:29.109Z,25.88
2023-05-23T16:15:35.221Z,26.03
2023-05-23T16:18:41.838Z,25.98
2023-05-23T16:21:48.095Z,25.79
2023-05-23T16:24:55.386Z,25.79
2023-05-23T16:28:02.477Z,25.84
2023-05-23T16:31:08.616Z,25.84
2023-05-23T16:34:13.672Z,25.98
2023-05-23T16:37:19.271Z,25.86
2023-05-23T16:40:25.643Z,25.86
2023-05-23T16:43:34.145Z,25.76
2023-05-23T16:46:39.718Z,25.79
2023-05-23T16:49:47.012Z,25.53
2023-05-23T16:52:54.289Z,25.53
2023-05-23T16:56:00.874Z,25.30
2023-05-23T16:59:07.475Z,25.37
2023-05-23T17:02:13.496Z,25.38
2023-05-23T17:05:19.580Z,25.08
2023-05-23T17:08:25.578Z,25.15
2023-05-23T17:11:32.549Z,25.04
2023-05-23T17:14:38.910Z,24.89
2023-05-23T17:17:43.707Z,24.83
2023-05-23T17:20:50.356Z,24.94
2023-05-23T17:23:55.993Z,24.89
2023-05-23T17:27:01.405Z,24.76
2023-05-23T17:30:06.837Z,24.82
2023-05-23T17:33:12.220Z,24.65
2023-05-23T17:36:18.834Z,24.63
2023-05-23T17:39:23.795Z,24.66
2023-05-23T17:42:29.980Z,24.48
2023-05-23T17:45:35.378Z,24.42
2023-05-23T17:48:47.537Z,24.29
2023-05-23T17:51:49.116Z,24.14
2023-05-23T17:54:55.068Z,23.93
2023-05-23T17:58:01.405Z,23.97
2023-05-23T18:01:08.081Z,24.03
2023-05-23T18:04:14.038Z,23.97
2023-05-23T18:07:20.061Z,23.97
2023-05-23T18:10:26.860Z,23.85
2023-05-23T18:13:32.796Z,23.57
2023-05-23T18:16:38.680Z,23.74
2023-05-23T18:19:43.572Z,23.75
2023-05-23T18:22:50.255Z,23.68
2023-05-23T18:25:56.161Z,23.69
2023-05-23T18:29:02.469Z,23.73
2023-05-23T18:32:00.864Z,23.82
2023-05-23T18:34:53.699Z,23.65
2023-05-23T18:37:58.798Z,23.58
2023-05-23T18:41:05.474Z,23.54
2023-05-23T18:44:05.139Z,23.51
2023-05-23T18:46:51.076Z,23.37
2023-05-23T18:49:42.969Z,23.26
2023-05-23T18:52:34.751Z,23.21
2023-05-23T18:55:39.387Z,23.17
2023-05-23T18:58:46.890Z,23.33
2023-05-23T19:01:52.672Z,23.24
2023-05-23T19:05:00.190Z,23.26
2023-05-23T19:08:06.243Z,23.28
2023-05-23T19:11:12.712Z,23.45
2023-05-23T19:14:20.775Z,23.47
2023-05-23T19:17:26.747Z,23.63
2023-05-23T19:20:32.042Z,23.71
2023-05-23T19:23:38.114Z,23.67
2023-05-23T19:26:37.482Z,23.69
2023-05-23T19:29:43.471Z,23.83
2023-05-23T19:32:48.668Z,23.95
2023-05-23T19:35:54.228Z,23.98
2023-05-23T19:39:02.117Z,23.93
2023-05-23T19:42:08.249Z,24.10
2023-05-23T19:45:14.584Z,24.07
2023-05-23T19:48:20.376Z,24.17
2023-05-23T19:51:25.139Z,24.29
2023-05-23T19:54:30.903Z,24.30
2023-05-23T19:57:35.618Z,24.28
2023-05-23T20:00:42.342Z,24.12
2023-05-23T20:03:47.821Z,24.10
2023-05-23T20:06:54.795Z,24.06
2023-05-23T20:09:59.597Z,24.08
2023-05-23T20:13:05.728Z,23.91
2023-05-23T20:16:10.854Z,23.89
2023-05-23T20:19:17.685Z,23.92
2023-05-23T20:22:24.250Z,23.75
2023-05-23T20:25:30.841Z,23.73
2023-05-23T20:28:36.816Z,23.69
2023-05-23T20:31:43.498Z,23.85
2023-05-23T20:34:42.430Z,23.98
2023-05-23T20:37:50.673Z,24.37
2023-05-23T20:40:59.437Z,24.37
2023-05-23T20:44:07.067Z,24.77
2023-05-23T20:47:13.671Z,24.79
2023-05-23T20:50:22.002Z,24.86
2023-05-23T20:53:27.465Z,24.72
2023-05-23T20:56:34.315Z,24.47
2023-05-23T20:59:39.128Z,24.52
2023-05-23T21:02:44.097Z,24.50
2023-05-23T21:05:49.163Z,24.49
2023-05-23T21:08:55.766Z,24.42
2023-05-23T21:12:01.821Z,24.46
2023-05-23T21:15:07.327Z,24.55
2023-05-23T21:18:12.179Z,24.65
2023-05-23T21:21:17.944Z,24.43
2023-05-23T21:24:23.607Z,24.72
2023-05-23T21:27:23.982Z,24.70
2023-05-23T21:30:28.816Z,24.72
2023-05-23T21:33:34.499Z,24.54
2023-05-23T21:36:40.240Z,24.59
2023-05-23T21:39:51.917Z,24.66
2023-05-23T21:42:54.782Z,24.51
2023-05-23T21:46:01.337Z,24.36
2023-05-23T21:48:59.992Z,24.40
2023-05-23T21:51:52.887Z,24.37
2023-05-23T21:54:58.380Z,24.24
2023-05-23T21:58:03.809Z,24.26
2023-05-23T22:01:09.626Z,24.43
2023-05-23T22:04:15.528Z,24.23
2023-05-23T22:07:20.089Z,23.93
2023-05-23T22:10:25.838Z,23.89
2023-05-23T22:13:31.376Z,24.01
2023-05-23T22:16:39.910Z,24.11
2023-05-23T22:19:46.990Z,24.01
2023-05-23T22:22:52.748Z,23.48
2023-05-23T22:25:59.043Z,23.70
2023-05-23T22:29:04.510Z,23.61
2023-05-23T22:32:11.099Z,23.46
2023-05-23T22:35:15.888Z,23.42
2023-05-23T22:38:21.944Z,23.35
2023-05-23T22:41:27.249Z,23.50
2023-05-23T22:44:33.743Z,23.56
2023-05-23T22:47:39.080Z,23.14
2023-05-23T22:50:46.584Z,23.01
2023-05-23T22:53:52.500Z,23.25
2023-05-23T22:56:58.488Z,23.35
2023-05-23T23:00:04.216Z,23.44
2023-05-23T23:03:10.442Z,23.36
2023-05-23T23:06:17.197Z,23.34
2023-05-23T23:09:24.805Z,23.39
2023-05-23T23:12:31.074Z,23.17
2023-05-23T23:15:37.054Z,23.19
2023-05-23T23:18:42.998Z,23.14
2023-05-23T23:21:49.420Z,23.25
2023-05-23T23:24:55.351Z,23.11
2023-05-23T23:28:01.267Z,22.91
2023-05-23T23:31:07.079Z,22.85
2023-05-23T23:34:12.612Z,22.78
2023-05-23T23:37:17.489Z,22.72
2023-05-23T23:40:24.216Z,22.76
2023-05-23T23:43:30.563Z,22.86
2023-05-23T23:46:36.242Z,22.90
2023-05-23T23:49:40.624Z,22.74
2023-05-23T23:52:46.642Z,22.80
2023-05-23T23:55:53.546Z,22.87
2023-05-23T23:58:59.674Z,22.95
